Time;durP1;ratioP1;P1;durP2;ratioP2;P2;SDS_P1;SDS_P2;PMS_P1;PMS_P2;Temp;Humidity;BMP_temperature;BMP_pressure;BME280_temperature;BME280_humidity;BME280_pressure;Samples;Min_cycle;Max_cycle;Signal;HPM_P1;HPM_P2
2023/06/03 00:02:15;;;;;;;1999.90;999.90;;;17.00;99.90;;;;;;5035137;28;20025;-78
2023/06/03 00:04:41;;;;;;;1999.90;999.90;;;17.00;99.90;;;;;;5035500;28;20036;-78
2023/06/03 00:07:07;;;;;;;1999.90;999.90;;;17.00;99.90;;;;;;5017602;28;20032;-78
2023/06/03 00:09:33;;;;;;;1999.90;999.90;;;16.90;99.90;;;;;;5029039;28;20057;-78
2023/06/03 00:11:59;;;;;;;1999.90;999.90;;;16.80;99.90;;;;;;5035290;28;20029;-78
2023/06/03 00:14:24;;;;;;;1999.90;999.90;;;16.80;99.90;;;;;;5035206;28;20028;-78
2023/06/03 00:16:50;;;;;;;1999.90;999.90;;;16.80;99.90;;;;;;5028807;28;20087;-78
2023/06/03 00:19:17;;;;;;;1999.90;999.90;;;16.80;99.90;;;;;;5015379;28;20026;-78
2023/06/03 00:21:49;;;;;;;1999.90;999.90;;;16.70;99.90;;;;;;5015516;28;20393;-78
2023/06/03 00:24:15;;;;;;;1999.90;999.90;;;16.70;99.90;;;;;;5014523;28;20026;-78
2023/06/03 00:26:41;;;;;;;1999.90;999.90;;;16.70;99.90;;;;;;5014525;28;20249;-78
2023/06/03 00:29:07;;;;;;;1999.90;999.90;;;16.70;99.90;;;;;;5014368;28;20033;-78
2023/06/03 00:31:33;;;;;;;1999.90;999.90;;;16.70;99.90;;;;;;5031268;28;20030;-78
2023/06/03 00:33:58;;;;;;;1999.90;999.90;;;16.70;99.90;;;;;;5034977;28;20033;-78
2023/06/03 00:36:24;;;;;;;1999.90;999.90;;;16.60;99.90;;;;;;5035230;28;20393;-78
2023/06/03 00:38:50;;;;;;;1999.90;999.90;;;16.60;99.90;;;;;;5034813;28;20473;-78
2023/06/03 00:41:16;;;;;;;1999.90;999.90;;;16.50;99.90;;;;;;5034872;28;20025;-78
2023/06/03 00:43:42;;;;;;;1999.90;999.90;;;16.50;99.90;;;;;;5034905;28;20400;-78
2023/06/03 00:46:10;;;;;;;1999.90;999.90;;;16.40;99.90;;;;;;5034713;28;20041;-78
2023/06/03 00:48:37;;;;;;;1999.90;999.90;;;16.40;99.90;;;;;;5034397;28;20025;-78
2023/06/03 00:51:03;;;;;;;1999.90;999.90;;;16.30;99.90;;;;;;5034640;28;20083;-78
2023/06/03 00:53:29;;;;;;;1999.90;999.90;;;16.30;99.90;;;;;;5034400;28;20480;-78
2023/06/03 00:55:55;;;;;;;1999.90;999.90;;;16.30;99.90;;;;;;5034680;28;20096;-78
2023/06/03 00:58:21;;;;;;;1999.90;999.90;;;16.30;99.90;;;;;;5034458;28;20033;-78
2023/06/03 01:00:47;;;;;;;1999.90;999.90;;;16.20;99.90;;;;;;5033998;28;20033;-78
2023/06/03 01:03:15;;;;;;;1999.90;999.90;;;16.20;99.90;;;;;;5033970;28;20022;-78
2023/06/03 01:05:46;;;;;;;1999.90;999.90;;;16.20;99.90;;;;;;5034387;28;20036;-78
2023/06/03 01:08:25;;;;;;;1999.90;999.90;;;16.20;99.90;;;;;;5034284;28;20109;-78
2023/06/03 01:11:07;;;;;;;1999.90;999.90;;;16.20;99.90;;;;;;5034130;28;20491;-78
2023/06/03 01:13:48;;;;;;;1999.90;999.90;;;16.10;99.90;;;;;;5034268;28;20407;-78
2023/06/03 01:16:17;;;;;;;1999.90;999.90;;;16.10;99.90;;;;;;5032257;28;20071;-78
2023/06/03 01:18:44;;;;;;;1999.90;999.90;;;16.00;99.90;;;;;;5014361;28;20022;-78
2023/06/03 01:21:12;;;;;;;1999.90;999.90;;;16.10;99.90;;;;;;5014423;28;20029;-78
2023/06/03 01:23:41;;;;;;;1999.90;999.90;;;16.00;99.90;;;;;;5014130;28;20508;-78
2023/06/03 01:26:07;;;;;;;1999.90;999.90;;;16.00;99.90;;;;;;5013445;28;20396;-78
2023/06/03 01:28:33;;;;;;;1999.90;999.90;;;16.00;99.90;;;;;;5013674;28;20157;-78
2023/06/03 01:31:01;;;;;;;1999.90;999.90;;;16.00;99.90;;;;;;5025901;28;20457;-78
2023/06/03 01:33:28;;;;;;;1999.90;999.90;;;15.90;99.90;;;;;;5033644;28;20103;-78
2023/06/03 01:35:58;;;;;;;1999.90;999.90;;;15.80;99.90;;;;;;5033794;28;20635;-78
2023/06/03 01:38:24;;;;;;;1999.90;999.90;;;15.80;99.90;;;;;;5033410;28;20029;-78
2023/06/03 01:40:52;;;;;;;1999.90;999.90;;;15.80;99.90;;;;;;5033676;28;20028;-78
2023/06/03 01:43:18;;;;;;;1999.90;999.90;;;15.80;99.90;;;;;;5034128;28;20018;-78
2023/06/03 01:45:45;;;;;;;1999.90;999.90;;;15.70;99.90;;;;;;5033606;28;20079;-78
2023/06/03 01:48:11;;;;;;;1999.90;999.90;;;15.70;99.90;;;;;;5033332;28;20436;-78
2023/06/03 01:50:41;;;;;;;1999.90;999.90;;;15.60;99.90;;;;;;5033390;28;20075;-78
2023/06/03 01:53:07;;;;;;;1999.90;999.90;;;15.60;99.90;;;;;;5033635;28;20032;-78
2023/06/03 01:55:33;;;;;;;1999.90;999.90;;;15.60;99.90;;;;;;5033505;28;20029;-79
2023/06/03 01:57:59;;;;;;;1999.90;999.90;;;15.60;99.90;;;;;;5033386;28;20552;-78
2023/06/03 02:00:25;;;;;;;1999.90;999.90;;;15.60;99.90;;;;;;5032269;28;20456;-78
2023/06/03 02:02:50;;;;;;;1999.90;999.90;;;15.50;99.90;;;;;;5033009;28;20060;-78
2023/06/03 02:05:16;;;;;;;1999.90;999.90;;;15.50;99.90;;;;;;5033401;28;20079;-78
2023/06/03 02:07:41;;;;;;;1999.90;999.90;;;15.50;99.90;;;;;;5032952;28;20021;-78
2023/06/03 02:10:07;;;;;;;1999.90;999.90;;;15.40;99.90;;;;;;5032806;28;20033;-78
2023/06/03 02:12:33;;;;;;;1999.90;999.90;;;15.40;99.90;;;;;;5033112;28;20084;-78
2023/06/03 02:14:59;;;;;;;1999.90;999.90;;;15.40;99.90;;;;;;5032963;28;20079;-78
2023/06/03 02:17:26;;;;;;;1999.90;999.90;;;15.40;99.90;;;;;;5033005;28;20034;-78
2023/06/03 02:19:53;;;;;;;1999.90;999.90;;;15.40;99.90;;;;;;5033176;28;20029;-78
2023/06/03 02:22:18;;;;;;;1999.90;999.90;;;15.40;99.90;;;;;;5033061;28;20028;-78
2023/06/03 02:24:46;;;;;;;1999.90;999.90;;;15.40;99.90;;;;;;5032854;28;20034;-78
2023/06/03 02:27:14;;;;;;;1999.90;999.90;;;15.30;99.90;;;;;;5032630;28;20013;-78
2023/06/03 02:29:41;;;;;;;1999.90;999.90;;;15.30;99.90;;;;;;5032349;28;20083;-78
2023/06/03 02:32:07;;;;;;;1999.90;999.90;;;15.30;99.90;;;;;;5033016;28;20104;-78
2023/06/03 02:34:33;;;;;;;1999.90;999.90;;;15.30;99.90;;;;;;5032815;28;20108;-78
2023/06/03 02:36:59;;;;;;;1999.90;999.90;;;15.20;99.90;;;;;;5033124;28;20571;-78
2023/06/03 02:39:24;;;;;;;1999.90;999.90;;;15.20;99.90;;;;;;5032894;28;20373;-78
2023/06/03 02:41:50;;;;;;;1999.90;999.90;;;15.20;99.90;;;;;;5032620;28;20492;-78
2023/06/03 02:44:16;;;;;;;1999.90;999.90;;;15.10;99.90;;;;;;5032712;28;20088;-78
2023/06/03 02:46:44;;;;;;;1999.90;999.90;;;15.10;99.90;;;;;;5032701;28;20022;-78
2023/06/03 02:49:10;;;;;;;1999.90;999.90;;;15.10;99.90;;;;;;5032850;28;20435;-78
2023/06/03 02:51:42;;;;;;;1999.90;999.90;;;15.10;99.90;;;;;;5014991;28;20017;-78
2023/06/03 02:54:07;;;;;;;1999.90;999.90;;;15.10;99.90;;;;;;5032748;28;20044;-78
2023/06/03 02:56:33;;;;;;;1999.90;999.90;;;15.00;99.90;;;;;;5032857;28;20018;-78
2023/06/03 02:58:59;;;;;;;1999.90;999.90;;;15.00;99.90;;;;;;5032705;28;20025;-78
2023/06/03 03:01:27;;;;;;;1999.90;999.90;;;15.00;99.90;;;;;;5032392;28;20021;-78
2023/06/03 03:03:52;;;;;;;1999.90;999.90;;;15.00;99.90;;;;;;5032208;28;20037;-78
2023/06/03 03:06:21;;;;;;;1999.90;999.90;;;15.00;99.90;;;;;;5032808;28;20017;-78
2023/06/03 03:08:47;;;;;;;1999.90;999.90;;;15.00;99.90;;;;;;5014556;28;20468;-78
2023/06/03 03:11:14;;;;;;;1999.90;999.90;;;15.00;99.90;;;;;;5033168;28;20025;-78
2023/06/03 03:13:43;;;;;;;1999.90;999.90;;;14.90;99.90;;;;;;5036276;28;20109;-78
2023/06/03 03:16:09;;;;;;;1999.90;999.90;;;14.90;99.90;;;;;;5036518;28;20118;-78
2023/06/03 03:18:39;;;;;;;1999.90;999.90;;;14.90;99.90;;;;;;5036400;28;20044;-78
2023/06/03 03:21:05;;;;;;;1999.90;999.90;;;14.90;99.90;;;;;;5036482;28;20021;-78
2023/06/03 03:23:31;;;;;;;1999.90;999.90;;;14.90;99.90;;;;;;5036104;28;20465;-78
2023/06/03 03:25:58;;;;;;;1999.90;999.90;;;14.80;99.90;;;;;;5035820;28;20025;-78
2023/06/03 03:28:24;;;;;;;1999.90;999.90;;;14.80;99.90;;;;;;5035374;28;20029;-78
2023/06/03 03:30:50;;;;;;;1999.90;999.90;;;14.80;99.90;;;;;;5036373;28;20136;-78
2023/06/03 03:33:17;;;;;;;1999.90;999.90;;;14.70;99.90;;;;;;5036166;28;20510;-78
2023/06/03 03:35:43;;;;;;;1999.90;999.90;;;14.70;99.90;;;;;;5036231;28;20505;-78
2023/06/03 03:38:09;;;;;;;1999.90;999.90;;;14.70;99.90;;;;;;5035891;28;20052;-78
2023/06/03 03:40:37;;;;;;;1999.90;999.90;;;14.70;99.90;;;;;;5035907;28;20025;-78
2023/06/03 03:43:03;;;;;;;1999.90;999.90;;;14.70;99.90;;;;;;5036007;28;20083;-78
2023/06/03 03:45:31;;;;;;;1999.90;999.90;;;14.70;99.90;;;;;;5018084;28;20033;-78
2023/06/03 03:48:04;;;;;;;1999.90;999.90;;;14.70;99.90;;;;;;5035606;28;20075;-78
2023/06/03 03:50:41;;;;;;;1999.90;999.90;;;14.70;99.90;;;;;;5035508;28;20017;-78
2023/06/03 03:53:15;;;;;;;1999.90;999.90;;;14.70;99.90;;;;;;5035792;28;20025;-78
2023/06/03 03:55:52;;;;;;;1999.90;999.90;;;14.70;99.90;;;;;;5035907;28;20025;-78
2023/06/03 03:58:41;;;;;;;1999.90;999.90;;;14.70;99.90;;;;;;5035811;28;20396;-78
2023/06/03 04:01:15;;;;;;;1999.90;999.90;;;14.70;99.90;;;;;;5035393;28;20024;-78
2023/06/03 04:03:44;;;;;;;1999.90;999.90;;;14.70;99.90;;;;;;5034434;28;20053;-78
2023/06/03 04:06:11;;;;;;;1999.90;999.90;;;14.70;99.90;;;;;;5035856;28;20037;-78
2023/06/03 04:08:46;;;;;;;1999.90;999.90;;;14.80;99.90;;;;;;5030434;28;20474;-78
2023/06/03 04:11:27;;;;;;;1999.90;999.90;;;14.80;99.90;;;;;;5015731;28;20030;-78
2023/06/03 04:13:58;;;;;;;1999.90;999.90;;;14.80;99.90;;;;;;5015294;28;20041;-78
2023/06/03 04:16:51;;;;;;;1999.90;999.90;;;14.70;99.90;;;;;;5015411;28;20092;-78
2023/06/03 04:19:27;;;;;;;1999.90;999.90;;;14.70;99.90;;;;;;4997262;28;20061;-78
2023/06/03 04:21:54;;;;;;;1999.90;999.90;;;14.70;99.90;;;;;;5028322;28;20391;-78
2023/06/03 04:24:19;;;;;;;1999.90;999.90;;;14.70;99.90;;;;;;5033918;28;20057;-77
2023/06/03 04:26:47;;;;;;;1999.90;999.90;;;14.70;99.90;;;;;;5033130;28;20045;-78
2023/06/03 04:29:13;;;;;;;1999.90;999.90;;;14.70;99.90;;;;;;5032594;28;20022;-78
2023/06/03 04:31:38;;;;;;;1999.90;999.90;;;14.70;99.90;;;;;;5035243;28;20097;-78
2023/06/03 04:34:04;;;;;;;1999.90;999.90;;;14.80;99.90;;;;;;5034958;28;20030;-78
2023/06/03 04:36:29;;;;;;;1999.90;999.90;;;14.80;99.90;;;;;;5034747;28;20401;-78
2023/06/03 04:38:55;;;;;;;1999.90;999.90;;;14.80;99.90;;;;;;5034666;28;20025;-78
2023/06/03 04:41:22;;;;;;;1999.90;999.90;;;14.80;99.90;;;;;;5034599;28;20100;-78
2023/06/03 04:43:47;;;;;;;1999.90;999.90;;;14.80;99.90;;;;;;5034601;28;20025;-78
2023/06/03 04:46:14;;;;;;;1999.90;999.90;;;14.90;99.90;;;;;;5016281;28;20025;-78
2023/06/03 04:48:41;;;;;;;1999.90;999.90;;;14.90;99.90;;;;;;5016741;28;20128;-78
2023/06/03 04:51:07;;;;;;;1999.90;999.90;;;14.90;99.90;;;;;;5034746;28;20021;-78
2023/06/03 04:53:36;;;;;;;1999.90;999.90;;;15.00;99.90;;;;;;5034683;28;20026;-78
2023/06/03 04:56:03;;;;;;;1999.90;999.90;;;15.00;99.90;;;;;;5034711;28;20467;-78
2023/06/03 04:58:28;;;;;;;1999.90;999.90;;;15.00;99.90;;;;;;5034470;28;20396;-77
2023/06/03 05:00:54;;;;;;;1999.90;999.90;;;15.00;99.90;;;;;;5034410;28;20025;-78
2023/06/03 05:03:19;;;;;;;1999.90;999.90;;;15.00;99.90;;;;;;5022196;28;20433;-78
2023/06/03 05:05:45;;;;;;;1999.90;999.90;;;15.10;99.90;;;;;;5026190;28;20068;-78
2023/06/03 05:08:12;;;;;;;1999.90;999.90;;;15.00;99.90;;;;;;5033977;28;20075;-78
2023/06/03 05:10:37;;;;;;;1999.90;999.90;;;15.00;99.90;;;;;;5034046;28;20053;-78
2023/06/03 05:13:05;;;;;;;1999.90;999.90;;;15.00;99.90;;;;;;5034275;28;20504;-78
2023/06/03 05:15:33;;;;;;;1999.90;999.90;;;15.10;99.90;;;;;;5034296;28;20075;-78
2023/06/03 05:18:00;;;;;;;1999.90;999.90;;;15.10;99.90;;;;;;5034080;28;20051;-78
2023/06/03 05:20:25;;;;;;;1999.90;999.90;;;15.10;99.90;;;;;;5016357;28;20484;-78
2023/06/03 05:22:51;;;;;;;1999.90;999.90;;;15.10;99.90;;;;;;5033799;28;20033;-78
2023/06/03 05:25:17;;;;;;;1999.90;999.90;;;15.20;99.90;;;;;;5033654;28;20022;-78
2023/06/03 05:27:42;;;;;;;1999.90;999.90;;;15.20;99.90;;;;;;5033854;28;20489;-78
2023/06/03 05:30:09;;;;;;;1999.90;999.90;;;15.30;99.90;;;;;;5015354;28;20033;-78
2023/06/03 05:32:35;;;;;;;1999.90;999.90;;;15.30;99.90;;;;;;5033816;28;20021;-78
2023/06/03 05:35:00;;;;;;;1999.90;999.90;;;15.40;99.90;;;;;;5033541;28;20058;-78
2023/06/03 05:37:26;;;;;;;1999.90;999.90;;;15.50;99.90;;;;;;5034273;28;20053;-78
2023/06/03 05:39:51;;;;;;;1999.90;999.90;;;15.50;99.90;;;;;;5033605;28;20029;-78
2023/06/03 05:42:17;;;;;;;1999.90;999.90;;;15.50;99.90;;;;;;5033753;28;20036;-78
2023/06/03 05:44:42;;;;;;;1999.90;999.90;;;15.60;99.90;;;;;;5015595;28;20025;-78
2023/06/03 05:47:08;;;;;;;1999.90;999.90;;;15.60;99.90;;;;;;5033761;28;20060;-78
2023/06/03 05:49:34;;;;;;;1999.90;999.90;;;15.60;99.90;;;;;;5033569;28;20075;-78
2023/06/03 05:51:59;;;;;;;1999.90;999.90;;;15.70;99.90;;;;;;5033450;28;20025;-78
2023/06/03 05:54:28;;;;;;;1999.90;999.90;;;15.70;99.90;;;;;;5033532;28;20029;-78
2023/06/03 05:56:57;;;;;;;1999.90;999.90;;;15.80;99.90;;;;;;5033713;28;20075;-78
2023/06/03 05:59:24;;;;;;;1999.90;999.90;;;15.80;99.90;;;;;;5015513;28;20515;-78
2023/06/03 06:01:49;;;;;;;1999.90;999.90;;;15.80;99.90;;;;;;5033083;28;20029;-78
2023/06/03 06:04:15;;;;;;;1999.90;999.90;;;15.70;99.90;;;;;;5033109;28;20036;-78
2023/06/03 06:06:41;;;;;;;1999.90;999.90;;;15.70;99.90;;;;;;5033107;28;20022;-78
2023/06/03 06:09:06;;;;;;;1999.90;999.90;;;15.70;99.90;;;;;;5033167;28;20507;-78
2023/06/03 06:11:33;;;;;;;1999.90;999.90;;;15.80;99.90;;;;;;5032555;28;20021;-78
2023/06/03 06:13:59;;;;;;;1999.90;999.90;;;15.90;99.90;;;;;;5013447;28;20045;-78
2023/06/03 06:16:25;;;;;;;1999.90;999.90;;;16.00;99.90;;;;;;5013667;28;20026;-78
2023/06/03 06:18:51;;;;;;;1999.90;999.90;;;16.00;99.90;;;;;;5013249;28;20034;-78
2023/06/03 06:21:16;;;;;;;1999.90;999.90;;;16.10;99.90;;;;;;5013734;28;20109;-78
2023/06/03 06:23:45;;;;;;;1999.90;999.90;;;16.30;99.90;;;;;;5013146;28;20029;-78
2023/06/03 06:26:14;;;;;;;1999.90;999.90;;;16.40;99.90;;;;;;5013236;28;20022;-78
2023/06/03 06:28:40;;;;;;;1999.90;999.90;;;16.60;99.90;;;;;;5013474;28;20072;-78
2023/06/03 06:31:06;;;;;;;1999.90;999.90;;;16.60;99.90;;;;;;5012349;28;20032;-78
2023/06/03 06:33:35;;;;;;;1999.90;999.90;;;16.70;99.90;;;;;;5011790;28;20108;-78
2023/06/03 06:36:24;;;;;;;1999.90;999.90;;;16.80;99.90;;;;;;5013059;28;20126;-78
2023/06/03 06:38:50;;;;;;;1999.90;999.90;;;16.90;99.90;;;;;;5013090;28;20030;-78
2023/06/03 06:41:15;;;;;;;1999.90;999.90;;;17.00;99.90;;;;;;5027575;28;20563;-78
2023/06/03 06:43:41;;;;;;;1999.90;999.90;;;17.10;99.90;;;;;;5032710;28;20025;-78
2023/06/03 06:46:07;;;;;;;1999.90;999.90;;;17.30;99.90;;;;;;5033306;28;20072;-78
2023/06/03 06:48:34;;;;;;;1999.90;999.90;;;17.40;99.90;;;;;;5036929;28;20463;-78
2023/06/03 06:51:00;;;;;;;1999.90;999.90;;;17.50;99.90;;;;;;5036996;28;20052;-78
2023/06/03 06:53:28;;;;;;;1999.90;999.90;;;17.70;99.90;;;;;;5037066;28;20064;-78
2023/06/03 06:55:55;;;;;;;1999.90;999.90;;;17.70;99.90;;;;;;5018685;28;20048;-78
2023/06/03 06:58:22;;;;;;;1999.90;999.90;;;17.80;99.90;;;;;;5036497;28;20496;-77
2023/06/03 07:00:48;;;;;;;1999.90;999.90;;;17.80;99.90;;;;;;5036745;28;20104;-78
2023/06/03 07:03:17;;;;;;;1999.90;999.90;;;17.90;99.90;;;;;;5036572;28;20041;-78
2023/06/03 07:05:43;;;;;;;1999.90;999.90;;;18.00;99.90;;;;;;5012928;28;20452;-78
2023/06/03 07:08:09;;;;;;;1999.90;999.90;;;18.20;99.90;;;;;;5000179;28;20489;-78
2023/06/03 07:10:35;;;;;;;1999.90;999.90;;;18.40;99.90;;;;;;5036256;28;20029;-78
2023/06/03 07:13:02;;;;;;;1999.90;999.90;;;18.40;99.90;;;;;;5023647;28;20556;-78
2023/06/03 07:15:29;;;;;;;1999.90;999.90;;;18.50;99.90;;;;;;5014891;28;20505;-78
2023/06/03 07:17:56;;;;;;;1999.90;999.90;;;18.70;99.90;;;;;;5016555;28;20029;-78
2023/06/03 07:20:43;;;;;;;1999.90;999.90;;;18.90;99.90;;;;;;5016435;28;20032;-78
2023/06/03 07:23:19;;;;;;;1999.90;999.90;;;19.10;99.90;;;;;;5016402;28;20032;-78
2023/06/03 07:25:47;;;;;;;1999.90;999.90;;;19.30;99.90;;;;;;5015492;28;20387;-78
2023/06/03 07:28:16;;;;;;;1999.90;999.90;;;19.50;99.90;;;;;;5014919;28;20022;-78
2023/06/03 07:30:43;;;;;;;1999.90;999.90;;;19.70;99.90;;;;;;5016159;28;20076;-79
2023/06/03 07:33:18;;;;;;;1999.90;999.90;;;20.80;99.90;;;;;;5015207;28;20549;-79
2023/06/03 07:35:44;;;;;;;1999.90;999.90;;;22.80;99.90;;;;;;5015962;28;20052;-79
2023/06/03 07:38:19;;;;;;;1999.90;999.90;;;24.30;99.90;;;;;;5014643;28;20144;-79
2023/06/03 07:40:46;;;;;;;1999.90;999.90;;;25.30;99.90;;;;;;5016448;28;20121;-79
2023/06/03 07:43:12;;;;;;;1999.90;999.90;;;25.60;99.90;;;;;;5016354;28;20182;-79
2023/06/03 07:45:38;;;;;;;1999.90;999.90;;;26.10;99.40;;;;;;5015655;28;20126;-79
2023/06/03 07:48:07;;;;;;;1999.90;999.90;;;26.70;98.60;;;;;;5015935;28;20018;-79
2023/06/03 07:50:33;;;;;;;1999.90;999.90;;;26.80;98.10;;;;;;5015742;28;20032;-79
2023/06/03 07:53:03;;;;;;;1999.90;999.90;;;26.80;97.40;;;;;;5016063;28;20481;-79
2023/06/03 07:55:41;;;;;;;1999.90;999.90;;;27.30;97.30;;;;;;5015742;28;20516;-79
2023/06/03 07:58:10;;;;;;;1999.90;999.90;;;27.80;96.30;;;;;;5014471;28;20105;-79
2023/06/03 08:00:38;;;;;;;1999.90;999.90;;;27.30;96.60;;;;;;5015632;28;20113;-78
2023/06/03 08:03:06;;;;;;;1999.90;999.90;;;28.00;96.40;;;;;;5025208;28;20018;-79
2023/06/03 08:05:36;;;;;;;1999.90;999.90;;;28.80;95.50;;;;;;5014070;28;20477;-79
2023/06/03 08:08:05;;;;;;;1999.90;999.90;;;28.90;95.40;;;;;;5015667;28;20365;-79
2023/06/03 08:10:34;;;;;;;1999.90;999.90;;;29.40;94.70;;;;;;5015358;28;20034;-79
2023/06/03 08:13:01;;;;;;;1999.90;999.90;;;29.40;93.70;;;;;;5015496;28;20374;-79
2023/06/03 08:15:35;;;;;;;1999.90;999.90;;;30.00;93.50;;;;;;5015095;28;20036;-79
2023/06/03 08:18:03;;;;;;;1999.90;999.90;;;30.30;92.90;;;;;;5015275;28;20101;-79
2023/06/03 08:20:29;;;;;;;1999.90;999.90;;;29.70;92.70;;;;;;5015473;28;20034;-79
2023/06/03 08:22:55;;;;;;;1999.90;999.90;;;30.30;92.30;;;;;;5014966;28;20029;-79
2023/06/03 08:25:22;;;;;;;1999.90;999.90;;;30.50;92.20;;;;;;5015126;28;20018;-79
2023/06/03 08:27:48;;;;;;;1999.90;999.90;;;30.90;91.50;;;;;;5015087;28;20057;-79
2023/06/03 08:30:14;;;;;;;1999.90;999.90;;;31.10;91.10;;;;;;5013562;28;20041;-79
2023/06/03 08:32:41;;;;;;;1999.90;999.90;;;31.20;90.80;;;;;;5014337;28;20033;-79
2023/06/03 08:35:11;;;;;;;1999.90;999.90;;;31.10;90.60;;;;;;5014873;28;20068;-79
2023/06/03 08:37:37;;;;;;;1999.90;999.90;;;31.20;90.80;;;;;;5014945;28;20098;-79
2023/06/03 08:40:10;;;;;;;1999.90;999.90;;;31.90;90.10;;;;;;5014789;28;20497;-79
2023/06/03 08:42:46;;;;;;;1999.90;999.90;;;32.60;90.00;;;;;;5014726;28;20449;-79
2023/06/03 08:45:14;;;;;;;1999.90;999.90;;;32.50;90.40;;;;;;5014918;28;20034;-79
2023/06/03 08:48:00;;;;;;;1999.90;999.90;;;33.00;88.50;;;;;;5014495;28;20029;-79
2023/06/03 08:50:27;;;;;;;1999.90;999.90;;;33.20;87.70;;;;;;5014700;28;20026;-79
2023/06/03 08:52:54;;;;;;;1999.90;999.90;;;32.50;89.30;;;;;;5014579;28;20060;-79
2023/06/03 08:55:21;;;;;;;1999.90;999.90;;;32.20;89.30;;;;;;5014829;28;20030;-79
2023/06/03 08:58:12;;;;;;;1999.90;999.90;;;32.70;88.60;;;;;;5014486;28;20036;-79
2023/06/03 09:00:38;;;;;;;1999.90;999.90;;;32.60;88.60;;;;;;5014159;28;20030;-80
2023/06/03 09:03:05;;;;;;;1999.90;999.90;;;33.30;87.70;;;;;;5024183;28;20084;-80
2023/06/03 09:05:33;;;;;;;1999.90;999.90;;;33.30;86.90;;;;;;5034083;28;20032;-79
2023/06/03 09:07:59;;;;;;;1999.90;999.90;;;33.20;87.20;;;;;;5034079;28;20500;-79
2023/06/03 09:10:26;;;;;;;1999.90;999.90;;;33.60;87.30;;;;;;5015864;28;20495;-79
2023/06/03 09:12:56;;;;;;;1999.90;999.90;;;33.20;86.90;;;;;;5022553;28;20068;-79
2023/06/03 09:15:22;;;;;;;1999.90;999.90;;;33.80;86.90;;;;;;5020452;28;20432;-80
2023/06/03 09:17:48;;;;;;;1999.90;999.90;;;33.50;87.00;;;;;;5033855;28;20021;-80
2023/06/03 09:20:14;;;;;;;1999.90;999.90;;;34.00;86.20;;;;;;5034022;28;20401;-80
2023/06/03 09:22:46;;;;;;;1999.90;999.90;;;33.90;86.10;;;;;;5033430;28;20025;-80
2023/06/03 09:25:12;;;;;;;1999.90;999.90;;;34.40;85.90;;;;;;5033557;28;20034;-80
2023/06/03 09:27:39;;;;;;;1999.90;999.90;;;34.10;84.40;;;;;;5033169;28;20029;-79
2023/06/03 09:30:06;;;;;;;1999.90;999.90;;;34.10;85.30;;;;;;5033038;28;20101;-80
2023/06/03 09:32:36;;;;;;;1999.90;999.90;;;33.60;85.40;;;;;;5033057;28;20021;-80
2023/06/03 09:35:05;;;;;;;1999.90;999.90;;;33.50;86.30;;;;;;5033207;28;20073;-80
2023/06/03 09:37:31;;;;;;;1999.90;999.90;;;33.90;86.40;;;;;;5033219;28;20033;-80
2023/06/03 09:39:57;;;;;;;1999.90;999.90;;;34.50;87.40;;;;;;5032979;28;20382;-80
2023/06/03 09:42:23;;;;;;;1999.90;999.90;;;34.80;85.10;;;;;;5033178;28;20028;-80
2023/06/03 09:44:49;;;;;;;1999.90;999.90;;;34.40;85.60;;;;;;5033122;28;20512;-80
2023/06/03 09:47:18;;;;;;;1999.90;999.90;;;34.10;85.80;;;;;;5033205;28;20028;-80
2023/06/03 09:50:09;;;;;;;1999.90;999.90;;;34.70;84.60;;;;;;5032962;28;20025;-80
2023/06/03 09:52:36;;;;;;;1999.90;999.90;;;34.30;84.70;;;;;;5032798;28;20021;-80
2023/06/03 09:55:04;;;;;;;1999.90;999.90;;;34.10;85.20;;;;;;5032830;28;20026;-80
2023/06/03 09:57:30;;;;;;;1999.90;999.90;;;34.20;85.80;;;;;;5015215;28;20026;-80
2023/06/03 10:00:07;;;;;;;1999.90;999.90;;;33.80;85.50;;;;;;5033360;28;20099;-80
2023/06/03 10:02:37;;;;;;;1999.90;999.90;;;33.80;85.20;;;;;;5032796;28;20029;-80
2023/06/03 10:05:03;;;;;;;1999.90;999.90;;;34.40;86.10;;;;;;5032897;28;20147;-81
2023/06/03 10:07:29;;;;;;;1999.90;999.90;;;34.00;84.80;;;;;;5033039;28;20026;-80
2023/06/03 10:10:05;;;;;;;1999.90;999.90;;;33.90;84.60;;;;;;5032817;28;20025;-80
2023/06/03 10:12:32;;;;;;;1999.90;999.90;;;34.10;85.40;;;;;;5032967;28;20020;-80
2023/06/03 10:15:01;;;;;;;1999.90;999.90;;;33.90;86.10;;;;;;5033101;28;20048;-80
2023/06/03 10:17:26;;;;;;;1999.90;999.90;;;33.40;85.10;;;;;;5032933;28;20029;-80
2023/06/03 10:19:52;;;;;;;1999.90;999.90;;;33.90;84.90;;;;;;5032836;28;20033;-80
2023/06/03 10:22:19;;;;;;;1999.90;999.90;;;34.20;85.70;;;;;;5031410;28;20041;-80
2023/06/03 10:24:47;;;;;;;1999.90;999.90;;;35.40;84.80;;;;;;5032772;28;20033;-80
2023/06/03 10:27:15;;;;;;;1999.90;999.90;;;35.00;83.60;;;;;;5015438;28;20052;-80
2023/06/03 10:29:41;;;;;;;1999.90;999.90;;;34.30;84.50;;;;;;5033014;28;20025;-80
2023/06/03 10:32:08;;;;;;;1999.90;999.90;;;34.40;84.00;;;;;;5032833;28;20032;-80
2023/06/03 10:34:41;;;;;;;1999.90;999.90;;;35.00;84.60;;;;;;5031672;28;20143;-80
2023/06/03 10:37:08;;;;;;;1999.90;999.90;;;34.70;84.40;;;;;;5033042;28;20040;-80
2023/06/03 10:39:33;;;;;;;1999.90;999.90;;;34.40;84.40;;;;;;5032498;28;20064;-80
2023/06/03 10:42:01;;;;;;;1999.90;999.90;;;34.40;84.00;;;;;;5032848;28;20459;-80
2023/06/03 10:44:28;;;;;;;1999.90;999.90;;;34.50;83.60;;;;;;5014557;28;20029;-80
2023/06/03 10:47:05;;;;;;;1999.90;999.90;;;34.60;83.60;;;;;;5032727;28;20025;-80
2023/06/03 10:49:58;;;;;;;1999.90;999.90;;;34.10;84.20;;;;;;5032295;28;20124;-80
2023/06/03 10:52:52;;;;;;;1999.90;999.90;;;33.60;84.40;;;;;;5032638;28;20013;-80
2023/06/03 10:55:39;;;;;;;1999.90;999.90;;;33.80;84.40;;;;;;5032442;28;20032;-80
2023/06/03 10:58:34;;;;;;;1999.90;999.90;;;33.70;83.80;;;;;;5014640;28;20504;-80
2023/06/03 11:01:02;;;;;;;1999.90;999.90;;;34.10;84.20;;;;;;5015856;28;20099;-80
2023/06/03 11:03:28;;;;;;;1999.90;999.90;;;34.30;82.40;;;;;;5032282;28;20076;-80
2023/06/03 11:06:21;;;;;;;1999.90;999.90;;;34.30;82.40;;;;;;5032425;28;20100;-80
2023/06/03 11:09:01;;;;;;;1999.90;999.90;;;34.60;81.80;;;;;;5014412;28;20029;-80
2023/06/03 11:11:55;;;;;;;1999.90;999.90;;;35.00;82.10;;;;;;5032602;28;20034;-80
2023/06/03 11:14:27;;;;;;;1999.90;999.90;;;34.60;82.10;;;;;;5012631;28;20026;-80
2023/06/03 11:16:58;;;;;;;1999.90;999.90;;;34.60;83.00;;;;;;5012843;28;20080;-80
2023/06/03 11:19:43;;;;;;;;;;;34.20;83.10;;;;;;5012537;28;20024;-80
2023/06/03 11:22:08;;;;;;;1999.90;999.90;;;34.50;82.20;;;;;;5012733;28;19916;-80
2023/06/03 11:24:38;;;;;;;1999.90;999.90;;;34.80;82.90;;;;;;5012829;28;20046;-80
2023/06/03 11:27:15;;;;;;;1999.90;999.90;;;34.20;80.80;;;;;;5012554;28;20052;-80
2023/06/03 11:29:46;;;;;;;1999.90;999.90;;;34.70;82.00;;;;;;5012593;28;20104;-80
2023/06/03 11:32:17;;;;;;;1999.90;999.90;;;35.20;82.00;;;;;;5013294;28;20018;-80
2023/06/03 11:34:43;;;;;;;1999.90;999.90;;;35.00;81.30;;;;;;4997532;28;20049;-81
2023/06/03 11:37:11;;;;;;;1999.90;999.90;;;34.90;81.10;;;;;;5016450;28;20038;-80
2023/06/03 11:40:06;;;;;;;1999.90;999.90;;;34.60;81.70;;;;;;5016332;28;20026;-80
2023/06/03 11:42:55;;;;;;;1999.90;999.90;;;34.70;81.50;;;;;;5016076;28;20029;-80
2023/06/03 11:45:30;;;;;;;1999.90;999.90;;;35.20;81.40;;;;;;5006012;28;20092;-81
2023/06/03 11:48:05;;;;;;;1999.90;999.90;;;35.00;81.50;;;;;;5016232;28;20110;-81
2023/06/03 11:50:48;;;;;;;1999.90;999.90;;;35.10;81.00;;;;;;5015989;28;20554;-80
2023/06/03 11:53:33;;;;;;;1999.90;999.90;;;35.40;80.20;;;;;;5015808;28;20397;-80
2023/06/03 11:56:12;;;;;;;1999.90;999.90;;;35.20;81.00;;;;;;5015891;28;20619;-80
2023/06/03 11:58:40;;;;;;;1999.90;999.90;;;35.00;80.50;;;;;;5015743;28;20026;-80
2023/06/03 12:01:19;;;;;;;1999.90;999.90;;;34.60;81.70;;;;;;5015800;28;20033;-81
2023/06/03 12:04:01;;;;;;;1999.90;999.90;;;34.70;81.10;;;;;;5030935;28;20034;-80
2023/06/03 12:06:37;;;;;;;1999.90;999.90;;;34.10;81.00;;;;;;5035586;28;20017;-80
2023/06/03 12:09:02;;;;;;;1999.90;999.90;;;34.10;80.10;;;;;;5035461;28;20108;-80